createdAt,value
2024-01-25T00:01:32.264Z,100643.25
2024-01-25T00:04:00.679Z,100632.94
2024-01-25T00:06:29.182Z,100635.19
2024-01-25T00:08:57.562Z,100632.84
2024-01-25T00:11:27.429Z,100636.47
2024-01-25T00:13:55.797Z,100638.56
2024-01-25T00:16:24.239Z,100638.81
2024-01-25T00:18:53.066Z,100640.69
2024-01-25T00:21:21.393Z,100639.00
2024-01-25T00:23:49.787Z,100632.13
2024-01-25T00:26:18.774Z,100624.06
2024-01-25T00:28:48.581Z,100624.59
2024-01-25T00:31:17.135Z,100623.00
2024-01-25T00:33:45.683Z,100617.22
2024-01-25T00:36:15.918Z,100611.78
2024-01-25T00:38:44.753Z,100598.13
2024-01-25T00:41:17.171Z,100599.00
2024-01-25T00:43:47.741Z,100590.53
2024-01-25T00:46:17.370Z,100588.38
2024-01-25T00:48:46.510Z,100586.63
2024-01-25T00:51:17.702Z,100594.75
2024-01-25T00:53:46.447Z,100598.81
2024-01-25T00:56:15.504Z,100585.25
2024-01-25T00:58:44.426Z,100569.56
2024-01-25T01:01:15.359Z,100557.69
2024-01-25T01:03:44.461Z,100563.47
2024-01-25T01:06:13.731Z,100556.75
2024-01-25T01:08:42.749Z,100542.38
2024-01-25T01:11:11.133Z,100543.00
2024-01-25T01:13:39.480Z,100533.56
2024-01-25T01:16:08.244Z,100534.53
2024-01-25T01:18:39.809Z,100532.47
2024-01-25T01:21:10.348Z,100526.41
2024-01-25T01:23:38.700Z,100511.06
2024-01-25T01:26:07.482Z,100500.19
2024-01-25T01:28:38.782Z,100493.38
2024-01-25T01:31:07.378Z,100479.56
2024-01-25T01:33:35.871Z,100472.09
2024-01-25T01:36:06.012Z,100468.53
2024-01-25T01:38:34.383Z,100453.94
2024-01-25T01:41:02.684Z,100453.75
2024-01-25T01:43:31.018Z,100453.16
2024-01-25T01:46:10.343Z,100447.47
2024-01-25T01:48:39.394Z,100443.59
2024-01-25T01:51:11.378Z,100454.00
2024-01-25T01:53:40.306Z,100443.28
2024-01-25T01:56:09.217Z,100435.28
2024-01-25T01:58:37.755Z,100432.28
2024-01-25T02:01:07.673Z,100429.72
2024-01-25T02:03:36.210Z,100425.81
2024-01-25T02:06:05.144Z,100428.81
2024-01-25T02:08:35.411Z,100425.69
2024-01-25T02:11:04.852Z,100414.66
2024-01-25T02:13:33.315Z,100413.63
2024-01-25T02:16:02.793Z,100397.75
2024-01-25T02:18:31.650Z,100398.34
2024-01-25T02:21:00.200Z,100396.22
2024-01-25T02:23:30.584Z,100396.78
2024-01-25T02:25:59.038Z,100387.25
2024-01-25T02:28:27.391Z,100394.94
2024-01-25T02:30:55.723Z,100394.09
2024-01-25T02:33:24.263Z,100379.84
2024-01-25T02:35:52.751Z,100380.13
2024-01-25T02:38:21.161Z,100379.88
2024-01-25T02:40:50.900Z,100368.75
2024-01-25T02:43:20.439Z,100371.94
2024-01-25T02:45:49.745Z,100353.69
2024-01-25T02:48:19.224Z,100348.41
2024-01-25T02:50:47.839Z,100334.59
2024-01-25T02:53:16.103Z,100337.22
2024-01-25T02:55:44.390Z,100334.84
2024-01-25T02:58:14.294Z,100330.59
2024-01-25T03:00:42.788Z,100330.31
2024-01-25T03:03:11.185Z,100331.66
2024-01-25T03:05:39.607Z,100331.66
2024-01-25T03:08:08.512Z,100322.38
2024-01-25T03:10:36.848Z,100316.31
2024-01-25T03:13:05.514Z,100305.75
2024-01-25T03:15:35.331Z,100307.31
2024-01-25T03:18:04.941Z,100297.28
2024-01-25T03:20:33.483Z,100301.00
2024-01-25T03:23:01.852Z,100292.78
2024-01-25T03:25:30.194Z,100283.50
2024-01-25T03:27:58.700Z,100274.00
2024-01-25T03:30:27.044Z,100276.91
2024-01-25T03:32:56.946Z,100274.78
2024-01-25T03:35:25.471Z,100275.09
2024-01-25T03:37:53.913Z,100282.53
2024-01-25T03:40:22.402Z,100277.75
2024-01-25T03:43:02.254Z,100267.69
2024-01-25T03:45:37.449Z,100260.00
2024-01-25T03:48:08.142Z,100264.78
2024-01-25T03:50:36.558Z,100268.47
2024-01-25T03:53:07.659Z,100264.50
2024-01-25T03:55:36.550Z,100270.34
2024-01-25T03:58:05.155Z,100272.72
2024-01-25T04:00:33.703Z,100274.56
2024-01-25T04:03:02.264Z,100289.97
2024-01-25T04:05:32.118Z,100293.94
2024-01-25T04:08:00.632Z,100307.97
2024-01-25T04:10:29.026Z,100308.53
2024-01-25T04:12:57.392Z,100298.97
2024-01-25T04:15:26.087Z,100301.63
2024-01-25T04:17:55.063Z,100312.00
2024-01-25T04:20:23.694Z,100298.44
2024-01-25T04:22:54.159Z,100317.56
2024-01-25T04:25:22.602Z,100318.63
2024-01-25T04:27:51.266Z,100317.28
2024-01-25T04:30:19.867Z,100314.66
2024-01-25T04:32:48.341Z,100311.19
2024-01-25T04:35:16.867Z,100306.41
2024-01-25T04:37:45.247Z,100304.00
2024-01-25T04:40:15.360Z,100306.94
2024-01-25T04:42:43.882Z,100291.00
2024-01-25T04:45:12.912Z,100285.41
2024-01-25T04:47:41.399Z,100287.81
2024-01-25T04:50:10.604Z,100280.38
2024-01-25T04:52:39.077Z,100282.22
2024-01-25T04:55:08.291Z,100277.69
2024-01-25T04:57:38.279Z,100272.38
2024-01-25T05:00:07.943Z,100278.19
2024-01-25T05:02:36.262Z,100273.72
2024-01-25T05:05:04.765Z,100283.50
2024-01-25T05:07:33.319Z,100280.28
2024-01-25T05:10:01.885Z,100279.53
2024-01-25T05:12:30.527Z,100277.94
2024-01-25T05:15:00.997Z,100280.34
2024-01-25T05:17:29.671Z,100275.56
2024-01-25T05:19:58.444Z,100271.09
2024-01-25T05:22:26.905Z,100263.41
2024-01-25T05:24:55.349Z,100280.66
2024-01-25T05:27:24.677Z,100273.47
2024-01-25T05:29:53.014Z,100270.28
2024-01-25T05:32:23.219Z,100263.94
2024-01-25T05:34:51.624Z,100265.00
2024-01-25T05:37:20.212Z,100268.44
2024-01-25T05:39:54.806Z,100257.31
2024-01-25T05:42:23.108Z,100250.69
2024-01-25T05:44:52.070Z,100258.66
2024-01-25T05:47:39.849Z,100263.44
2024-01-25T05:50:09.173Z,100270.84
2024-01-25T05:52:39.134Z,100265.56
2024-01-25T05:55:09.261Z,100269.00
2024-01-25T05:57:38.921Z,100289.19
2024-01-25T06:00:08.954Z,100279.63
2024-01-25T06:02:37.321Z,100295.28
2024-01-25T06:05:07.636Z,100283.06
2024-01-25T06:07:36.418Z,100284.41
2024-01-25T06:10:05.420Z,100291.53
2024-01-25T06:12:33.797Z,100288.88
2024-01-25T06:15:02.269Z,100298.44
2024-01-25T06:17:31.741Z,100295.78
2024-01-25T06:20:00.600Z,100306.13
2024-01-25T06:22:30.576Z,100311.44
2024-01-25T06:24:58.917Z,100302.97
2024-01-25T06:27:27.364Z,100309.31
2024-01-25T06:29:55.767Z,100322.31
2024-01-25T06:32:26.879Z,100313.81
2024-01-25T06:34:56.001Z,100325.00
2024-01-25T06:37:24.570Z,100335.88
2024-01-25T06:39:54.529Z,100321.28
2024-01-25T06:42:23.202Z,100320.19
2024-01-25T06:44:51.721Z,100318.63
2024-01-25T06:47:22.220Z,100321.03
2024-01-25T06:49:53.235Z,100311.19
2024-01-25T06:52:21.992Z,100304.00
2024-01-25T06:54:50.475Z,100292.59
2024-01-25T06:57:26.710Z,100295.53
2024-01-25T06:59:55.308Z,100286.19
2024-01-25T07:02:24.233Z,100285.34
2024-01-25T07:04:55.345Z,100278.94
2024-01-25T07:07:24.022Z,100271.47
2024-01-25T07:09:52.766Z,100267.16
2024-01-25T07:12:21.506Z,100272.44
2024-01-25T07:14:51.599Z,100270.00
2024-01-25T07:17:20.042Z,100283.56
2024-01-25T07:19:48.581Z,100282.72
2024-01-25T07:22:18.871Z,100293.25
2024-01-25T07:24:47.394Z,100298.59
2024-01-25T07:27:15.674Z,100304.44
2024-01-25T07:29:46.735Z,100290.38
2024-01-25T07:32:16.541Z,100281.81
2024-01-25T07:34:44.901Z,100276.22
2024-01-25T07:37:13.571Z,100292.72
2024-01-25T07:39:42.051Z,100286.22
2024-01-25T07:42:10.869Z,100294.13
2024-01-25T07:44:39.347Z,100287.44
2024-01-25T07:47:07.834Z,100293.22
2024-01-25T07:49:37.758Z,100285.06
2024-01-25T07:52:06.550Z,100284.16
2024-01-25T07:54:35.021Z,100273.72
2024-01-25T07:57:03.460Z,100269.31
2024-01-25T07:59:31.879Z,100273.44
2024-01-25T08:02:01.517Z,100274.94
2024-01-25T08:04:30.037Z,100283.53
2024-01-25T08:07:00.772Z,100271.41
2024-01-25T08:09:29.178Z,100272.09
2024-01-25T08:11:57.546Z,100274.94
2024-01-25T08:14:28.872Z,100300.47
2024-01-25T08:16:57.467Z,100303.13
2024-01-25T08:19:26.656Z,100308.47
2024-01-25T08:21:55.486Z,100318.50
2024-01-25T08:24:25.331Z,100318.16
2024-01-25T08:26:53.663Z,100316.34
2024-01-25T08:29:22.487Z,100305.00
2024-01-25T08:31:51.001Z,100323.06
2024-01-25T08:34:19.642Z,100317.03
2024-01-25T08:36:48.109Z,100320.09
2024-01-25T08:39:16.771Z,100308.34
2024-01-25T08:41:50.341Z,100319.09
2024-01-25T08:44:18.780Z,100317.41
2024-01-25T08:46:47.136Z,100313.97
2024-01-25T08:49:15.713Z,100309.81
2024-01-25T08:51:44.911Z,100315.88
2024-01-25T08:54:13.310Z,100309.66
2024-01-25T08:56:41.799Z,100324.66
2024-01-25T08:59:11.560Z,100326.84
2024-01-25T09:01:39.970Z,100317.84
2024-01-25T09:04:09.101Z,100314.47
2024-01-25T09:06:37.639Z,100314.91
2024-01-25T09:09:06.656Z,100311.91
2024-01-25T09:11:35.042Z,100310.31
2024-01-25T09:14:03.476Z,100304.63
2024-01-25T09:16:33.377Z,100308.31
2024-01-25T09:19:02.066Z,100312.19
2024-01-25T09:21:30.496Z,100316.50
2024-01-25T09:23:58.906Z,100315.44
2024-01-25T09:26:28.961Z,100312.66
2024-01-25T09:28:57.330Z,100320.81
2024-01-25T09:31:25.910Z,100323.19
2024-01-25T09:33:56.546Z,100323.31
2024-01-25T09:36:25.232Z,100328.53
2024-01-25T09:38:54.080Z,100328.91
2024-01-25T09:41:22.872Z,100328.59
2024-01-25T09:43:51.470Z,100320.50
2024-01-25T09:46:21.441Z,100316.72
2024-01-25T09:48:50.321Z,100325.75
2024-01-25T09:51:21.999Z,100318.16
2024-01-25T09:53:51.799Z,100323.66
2024-01-25T09:56:24.457Z,100324.84
2024-01-25T09:58:53.062Z,100318.03
2024-01-25T10:01:21.708Z,100322.69
2024-01-25T10:03:50.470Z,100309.03
2024-01-25T10:06:20.044Z,100314.56
2024-01-25T10:08:49.854Z,100320.28
2024-01-25T10:11:19.352Z,100320.38
2024-01-25T10:13:48.924Z,100328.34
2024-01-25T10:16:18.562Z,100325.03
2024-01-25T10:18:49.579Z,100319.59
2024-01-25T10:21:19.464Z,100313.06
2024-01-25T10:23:52.685Z,100308.00
2024-01-25T10:26:21.485Z,100308.91
2024-01-25T10:28:59.446Z,100301.81
2024-01-25T10:31:32.284Z,100301.41
2024-01-25T10:34:02.874Z,100299.13
2024-01-25T10:36:33.111Z,100293.25
2024-01-25T10:39:07.130Z,100295.06
2024-01-25T10:41:36.573Z,100286.69
2024-01-25T10:44:07.787Z,100287.50
2024-01-25T10:46:37.222Z,100281.94
2024-01-25T10:49:06.159Z,100273.22
2024-01-25T10:51:36.026Z,100289.97
2024-01-25T10:54:08.182Z,100285.69
2024-01-25T10:56:38.323Z,100281.81
2024-01-25T10:59:07.575Z,100291.09
2024-01-25T11:01:36.468Z,100276.78
2024-01-25T11:04:05.557Z,100274.34
2024-01-25T11:06:36.612Z,100279.00
2024-01-25T11:09:10.996Z,100273.97
2024-01-25T11:11:39.420Z,100273.69
2024-01-25T11:14:15.472Z,100279.81
2024-01-25T11:16:46.303Z,100302.59
2024-01-25T11:19:33.572Z,100286.34
2024-01-25T11:22:05.752Z,100300.00
2024-01-25T11:24:40.925Z,100276.94
2024-01-25T11:27:11.412Z,100288.25
2024-01-25T11:29:43.788Z,100298.63
2024-01-25T11:32:12.780Z,100305.34
2024-01-25T11:34:41.171Z,100291.97
2024-01-25T11:37:09.914Z,100310.00
2024-01-25T11:39:39.942Z,100293.59
2024-01-25T11:42:09.055Z,100301.97
2024-01-25T11:44:37.613Z,100298.13
2024-01-25T11:47:06.687Z,100301.19
2024-01-25T11:49:37.251Z,100292.78
2024-01-25T11:52:06.160Z,100283.88
2024-01-25T11:54:34.627Z,100280.09
2024-01-25T11:57:04.661Z,100276.75
2024-01-25T11:59:33.135Z,100275.63
2024-01-25T12:02:02.273Z,100278.81
2024-01-25T12:04:31.725Z,100268.44
2024-01-25T12:07:01.572Z,100289.50
2024-01-25T12:09:30.007Z,100290.81
2024-01-25T12:11:58.387Z,100275.97
2024-01-25T12:14:28.242Z,100286.97
2024-01-25T12:16:58.010Z,100286.28
2024-01-25T12:19:26.448Z,100289.66
2024-01-25T12:21:55.092Z,100285.31
2024-01-25T12:24:23.552Z,100286.88
2024-01-25T12:26:51.868Z,100288.31
2024-01-25T12:29:20.324Z,100281.94
2024-01-25T12:31:50.084Z,100285.88
2024-01-25T12:34:19.273Z,100288.47
2024-01-25T12:36:47.904Z,100290.16
2024-01-25T12:39:18.310Z,100287.56
2024-01-25T12:41:49.289Z,100286.38
2024-01-25T12:44:18.282Z,100281.75
2024-01-25T12:46:46.913Z,100279.84
2024-01-25T12:49:17.595Z,100287.94
2024-01-25T12:51:46.191Z,100286.44
2024-01-25T12:54:14.849Z,100285.19
2024-01-25T12:56:43.235Z,100287.03
2024-01-25T12:59:12.217Z,100282.53
2024-01-25T13:01:40.851Z,100285.84
2024-01-25T13:04:09.706Z,100287.31
2024-01-25T13:06:39.853Z,100285.50
2024-01-25T13:09:09.111Z,100291.72
2024-01-25T13:11:37.621Z,100276.09
2024-01-25T13:14:06.051Z,100283.22
2024-01-25T13:16:34.411Z,100282.38
2024-01-25T13:19:02.988Z,100271.44
2024-01-25T13:21:31.369Z,100282.22
2024-01-25T13:24:01.964Z,100275.72
2024-01-25T13:26:30.308Z,100282.84
2024-01-25T13:28:58.870Z,100276.56
2024-01-25T13:31:27.216Z,100280.50
2024-01-25T13:33:55.762Z,100270.22
2024-01-25T13:36:24.209Z,100271.28
2024-01-25T13:38:52.621Z,100269.63
2024-01-25T13:41:22.897Z,100267.66
2024-01-25T13:43:51.176Z,100267.25
2024-01-25T13:46:21.379Z,100263.25
2024-01-25T13:48:50.496Z,100258.13
2024-01-25T13:51:19.014Z,100249.31
2024-01-25T13:53:48.839Z,100248.88
2024-01-25T13:56:17.714Z,100262.38
2024-01-25T13:58:47.564Z,100246.50
2024-01-25T14:01:15.979Z,100236.72
2024-01-25T14:03:45.850Z,100236.50
2024-01-25T14:06:14.747Z,100239.84
2024-01-25T14:08:43.614Z,100240.44
2024-01-25T14:11:14.959Z,100236.56
2024-01-25T14:13:43.428Z,100242.59
2024-01-25T14:16:18.165Z,100234.00
2024-01-25T14:18:47.870Z,100245.56
2024-01-25T14:21:17.143Z,100247.13
2024-01-25T14:23:45.774Z,100234.66
2024-01-25T14:26:15.123Z,100233.78
2024-01-25T14:28:43.702Z,100244.53
2024-01-25T14:31:13.583Z,100237.25
2024-01-25T14:33:45.417Z,100234.16
2024-01-25T14:36:16.368Z,100231.91
2024-01-25T14:38:44.863Z,100244.44
2024-01-25T14:41:13.821Z,100241.88
2024-01-25T14:43:42.187Z,100234.63
2024-01-25T14:46:10.617Z,100224.94
2024-01-25T14:48:40.522Z,100237.56
2024-01-25T14:51:08.957Z,100233.28
2024-01-25T14:53:37.267Z,100248.63
2024-01-25T14:56:06.274Z,100254.69
2024-01-25T14:58:35.358Z,100256.06
2024-01-25T15:01:05.145Z,100266.34
2024-01-25T15:03:33.923Z,100281.78
2024-01-25T15:06:04.251Z,100281.72
2024-01-25T15:08:32.604Z,100288.22
2024-01-25T15:11:01.423Z,100283.47
2024-01-25T15:13:29.803Z,100289.88
2024-01-25T15:15:58.323Z,100285.34
2024-01-25T15:18:27.050Z,100291.53
2024-01-25T15:20:55.635Z,100281.94
2024-01-25T15:23:25.542Z,100284.53
2024-01-25T15:25:55.561Z,100279.19
2024-01-25T15:28:23.931Z,100284.97
2024-01-25T15:30:52.354Z,100280.56
2024-01-25T15:33:20.985Z,100292.03
2024-01-25T15:35:49.395Z,100286.78
2024-01-25T15:38:19.587Z,100280.38
2024-01-25T15:40:49.495Z,100278.16
2024-01-25T15:43:17.973Z,100273.84
2024-01-25T15:45:46.557Z,100277.59
2024-01-25T15:48:18.159Z,100274.03
2024-01-25T15:50:46.560Z,100276.00
2024-01-25T15:53:16.654Z,100287.31
2024-01-25T15:55:45.004Z,100287.47
2024-01-25T15:58:14.884Z,100280.44
2024-01-25T16:00:43.345Z,100280.75
2024-01-25T16:03:12.147Z,100276.91
2024-01-25T16:05:40.636Z,100276.72
2024-01-25T16:08:08.947Z,100277.63
2024-01-25T16:10:38.499Z,100281.03
2024-01-25T16:13:06.958Z,100286.41
2024-01-25T16:15:36.751Z,100288.84
2024-01-25T16:18:06.162Z,100289.41
2024-01-25T16:20:34.733Z,100289.88
2024-01-25T16:23:03.545Z,100290.94
2024-01-25T16:25:32.438Z,100287.94
2024-01-25T16:28:01.740Z,100297.69
2024-01-25T16:30:30.267Z,100292.41
2024-01-25T16:33:00.251Z,100288.09
2024-01-25T16:35:29.056Z,100286.06
2024-01-25T16:37:57.564Z,100292.69
2024-01-25T16:40:25.950Z,100288.94
2024-01-25T16:42:55.719Z,100298.53
2024-01-25T16:45:25.406Z,100299.41
2024-01-25T16:47:54.113Z,100302.63
2024-01-25T16:50:24.260Z,100306.09
2024-01-25T16:52:53.084Z,100310.16
2024-01-25T16:55:24.646Z,100316.25
2024-01-25T16:57:53.127Z,100329.50
2024-01-25T17:00:24.608Z,100332.94
2024-01-25T17:02:54.510Z,100334.19
2024-01-25T17:05:24.349Z,100347.66
2024-01-25T17:07:53.403Z,100354.31
2024-01-25T17:10:22.801Z,100359.63
2024-01-25T17:12:51.274Z,100366.00
2024-01-25T17:15:23.047Z,100368.19
2024-01-25T17:17:51.491Z,100342.19
2024-01-25T17:20:20.305Z,100349.63
2024-01-25T17:22:50.090Z,100343.44
2024-01-25T17:25:18.960Z,100336.00
2024-01-25T17:27:47.851Z,100347.44
2024-01-25T17:30:17.314Z,100352.06
2024-01-25T17:32:46.895Z,100346.72
2024-01-25T17:35:15.350Z,100343.38
2024-01-25T17:37:46.769Z,100346.53
2024-01-25T17:40:18.125Z,100330.34
2024-01-25T17:42:46.833Z,100325.78
2024-01-25T17:45:19.201Z,100335.84
2024-01-25T17:47:47.641Z,100334.75
2024-01-25T17:50:19.890Z,100334.56
2024-01-25T17:52:48.308Z,100333.78
2024-01-25T17:55:18.404Z,100336.25
2024-01-25T17:57:47.166Z,100332.22
2024-01-25T18:00:16.907Z,100329.84
2024-01-25T18:02:48.538Z,100313.09
2024-01-25T18:05:17.144Z,100314.25
2024-01-25T18:07:45.585Z,100315.00
2024-01-25T18:10:14.234Z,100306.81
2024-01-25T18:12:43.990Z,100312.72
2024-01-25T18:15:13.696Z,100315.88
2024-01-25T18:17:42.270Z,100314.19
2024-01-25T18:20:11.823Z,100310.50
2024-01-25T18:22:40.255Z,100318.47
2024-01-25T18:25:10.093Z,100320.03
2024-01-25T18:27:38.608Z,100316.25
2024-01-25T18:30:10.455Z,100314.38
2024-01-25T18:32:38.909Z,100323.69
2024-01-25T18:35:08.112Z,100327.91
2024-01-25T18:37:36.678Z,100323.63
2024-01-25T18:40:14.614Z,100328.41
2024-01-25T18:42:43.329Z,100334.47
2024-01-25T18:45:13.631Z,100331.53
2024-01-25T18:47:42.112Z,100336.31
2024-01-25T18:50:11.103Z,100332.09
2024-01-25T18:52:39.684Z,100328.59
2024-01-25T18:55:09.309Z,100334.75
2024-01-25T18:57:38.348Z,100342.53
2024-01-25T19:00:09.271Z,100348.69
2024-01-25T19:02:40.005Z,100356.69
2024-01-25T19:05:09.920Z,100377.72
2024-01-25T19:07:40.625Z,100362.03
2024-01-25T19:10:10.231Z,100377.75
2024-01-25T19:12:39.374Z,100386.88
2024-01-25T19:15:10.918Z,100391.28
2024-01-25T19:17:41.995Z,100395.88
2024-01-25T19:20:11.593Z,100399.13
2024-01-25T19:22:41.489Z,100370.97
2024-01-25T19:25:10.384Z,100353.69
2024-01-25T19:27:42.284Z,100341.69
2024-01-25T19:30:11.519Z,100351.22
2024-01-25T19:32:41.496Z,100336.31
2024-01-25T19:35:11.198Z,100338.69
2024-01-25T19:37:39.635Z,100337.59
2024-01-25T19:40:09.501Z,100347.69
2024-01-25T19:42:38.604Z,100344.50
2024-01-25T19:45:09.986Z,100339.25
2024-01-25T19:47:43.046Z,100352.81
2024-01-25T19:50:14.784Z,100352.28
2024-01-25T19:52:45.099Z,100353.38
2024-01-25T19:55:14.652Z,100354.94
2024-01-25T19:57:43.615Z,100362.41
2024-01-25T20:00:13.452Z,100372.22
2024-01-25T20:02:45.355Z,100364.31
2024-01-25T20:05:15.168Z,100367.22
2024-01-25T20:07:44.456Z,100369.88
2024-01-25T20:10:12.806Z,100365.13
2024-01-25T20:12:42.075Z,100365.13
2024-01-25T20:15:11.708Z,100366.50
2024-01-25T20:17:40.099Z,100365.69
2024-01-25T20:20:12.976Z,100372.88
2024-01-25T20:22:41.521Z,100372.63
2024-01-25T20:25:12.906Z,100379.78
2024-01-25T20:27:41.622Z,100375.78
2024-01-25T20:30:11.183Z,100365.66
2024-01-25T20:32:42.300Z,100365.09
2024-01-25T20:35:12.342Z,100364.03
2024-01-25T20:37:41.002Z,100362.72
2024-01-25T20:40:10.727Z,100349.72
2024-01-25T20:42:39.314Z,100348.72
2024-01-25T20:45:08.875Z,100345.50
2024-01-25T20:47:37.236Z,100344.16
2024-01-25T20:50:06.341Z,100346.84
2024-01-25T20:52:39.238Z,100346.84
2024-01-25T20:55:08.400Z,100349.28
2024-01-25T20:57:36.986Z,100339.75
2024-01-25T21:00:07.173Z,100346.69
2024-01-25T21:02:36.201Z,100350.69
2024-01-25T21:05:05.978Z,100353.88
2024-01-25T21:07:35.984Z,100350.44
2024-01-25T21:10:06.889Z,100352.03
2024-01-25T21:12:35.930Z,100344.59
2024-01-25T21:15:05.233Z,100349.91
2024-01-25T21:17:33.625Z,100350.44
2024-01-25T21:20:04.389Z,100350.44
2024-01-25T21:22:33.007Z,100341.41
2024-01-25T21:25:02.600Z,100348.84
2024-01-25T21:27:32.725Z,100345.13
2024-01-25T21:30:01.215Z,100356.53
2024-01-25T21:32:29.703Z,100351.19
2024-01-25T21:34:58.300Z,100358.91
2024-01-25T21:37:29.569Z,100354.06
2024-01-25T21:39:58.531Z,100365.22
2024-01-25T21:42:27.786Z,100362.59
2024-01-25T21:44:57.779Z,100363.94
2024-01-25T21:47:26.297Z,100362.63
2024-01-25T21:49:54.642Z,100357.31
2024-01-25T21:52:23.437Z,100355.44
2024-01-25T21:54:52.017Z,100358.38
2024-01-25T21:57:21.545Z,100357.59
2024-01-25T21:59:51.437Z,100338.72
2024-01-25T22:02:21.696Z,100335.28
2024-01-25T22:04:50.805Z,100330.50
2024-01-25T22:07:19.587Z,100338.50
2024-01-25T22:09:48.009Z,100338.22
2024-01-25T22:12:19.662Z,100350.97
2024-01-25T22:14:48.534Z,100349.91
2024-01-25T22:17:16.842Z,100345.69
2024-01-25T22:19:46.803Z,100340.91
2024-01-25T22:22:15.373Z,100337.72
2024-01-25T22:24:43.849Z,100330.28
2024-01-25T22:27:12.302Z,100336.66
2024-01-25T22:29:40.620Z,100341.72
2024-01-25T22:32:08.941Z,100334.81
2024-01-25T22:34:37.769Z,100347.81
2024-01-25T22:37:07.892Z,100350.72
2024-01-25T22:39:36.273Z,100331.34
2024-01-25T22:42:04.978Z,100345.41
2024-01-25T22:44:33.354Z,100347.28
2024-01-25T22:47:05.750Z,100341.44
2024-01-25T22:49:34.919Z,100344.06
2024-01-25T22:52:03.338Z,100338.22
2024-01-25T22:54:33.431Z,100348.31
2024-01-25T22:57:02.925Z,100340.88
2024-01-25T22:59:31.341Z,100336.09
2024-01-25T23:01:59.836Z,100336.38
2024-01-25T23:04:28.313Z,100339.06
2024-01-25T23:06:57.195Z,100339.56
2024-01-25T23:09:26.015Z,100341.44
2024-01-25T23:11:55.819Z,100336.69
2024-01-25T23:14:24.808Z,100342.78
2024-01-25T23:16:53.197Z,100345.69
2024-01-25T23:19:24.853Z,100353.13
2024-01-25T23:21:53.738Z,100332.13
2024-01-25T23:24:22.111Z,100325.25
2024-01-25T23:26:50.999Z,100331.88
2024-01-25T23:29:21.064Z,100339.56
2024-01-25T23:31:52.652Z,100345.16
2024-01-25T23:34:21.252Z,100337.19
2024-01-25T23:36:50.467Z,100341.19
2024-01-25T23:39:19.673Z,100341.44
2024-01-25T23:41:48.019Z,100342.78
2024-01-25T23:44:16.351Z,100351.53
2024-01-25T23:46:46.420Z,100348.09
2024-01-25T23:49:17.076Z,100351.00
2024-01-25T23:51:47.406Z,100357.38
2024-01-25T23:54:16.050Z,100354.16
2024-01-25T23:56:45.043Z,100358.41
2024-01-25T23:59:14.127Z,100352.06
